sensor_id;sensor_type;location;lat;lon;timestamp;P1;durP1;ratioP1;P2;durP2;ratioP2
4694;SDS011;2361;49.540;8.390;2024-03-02T00:00:35;13.00;;;8.13;;
4694;SDS011;2361;49.540;8.390;2024-03-02T00:02:57;11.38;;;7.78;;
4694;SDS011;2361;49.540;8.390;2024-03-02T00:05:20;10.75;;;8.00;;
4694;SDS011;2361;49.540;8.390;2024-03-02T00:07:44;11.93;;;8.05;;
4694;SDS011;2361;49.540;8.390;2024-03-02T00:10:19;11.30;;;8.10;;
4694;SDS011;2361;49.540;8.390;2024-03-02T00:12:50;10.97;;;7.50;;
4694;SDS011;2361;49.540;8.390;2024-03-02T00:17:59;12.98;;;8.18;;
4694;SDS011;2361;49.540;8.390;2024-03-02T00:20:23;12.82;;;8.20;;
4694;SDS011;2361;49.540;8.390;2024-03-02T00:22:45;14.55;;;8.60;;
4694;SDS011;2361;49.540;8.390;2024-03-02T00:25:09;13.27;;;8.50;;
4694;SDS011;2361;49.540;8.390;2024-03-02T00:27:31;14.13;;;8.65;;
4694;SDS011;2361;49.540;8.390;2024-03-02T00:29:53;14.27;;;8.60;;
4694;SDS011;2361;49.540;8.390;2024-03-02T00:32:18;13.80;;;8.77;;
4694;SDS011;2361;49.540;8.390;2024-03-02T00:34:40;14.90;;;8.90;;
4694;SDS011;2361;49.540;8.390;2024-03-02T00:37:01;13.52;;;8.80;;
4694;SDS011;2361;49.540;8.390;2024-03-02T00:39:24;15.13;;;8.50;;
4694;SDS011;2361;49.540;8.390;2024-03-02T00:41:46;15.32;;;9.07;;
4694;SDS011;2361;49.540;8.390;2024-03-02T00:44:12;14.98;;;9.30;;
4694;SDS011;2361;49.540;8.390;2024-03-02T00:48:59;17.08;;;10.23;;
4694;SDS011;2361;49.540;8.390;2024-03-02T00:51:24;19.20;;;9.82;;
4694;SDS011;2361;49.540;8.390;2024-03-02T00:54:00;15.85;;;9.85;;
4694;SDS011;2361;49.540;8.390;2024-03-02T00:56:26;15.77;;;9.60;;
4694;SDS011;2361;49.540;8.390;2024-03-02T00:58:48;18.52;;;10.48;;
4694;SDS011;2361;49.540;8.390;2024-03-02T01:01:11;16.52;;;9.73;;
4694;SDS011;2361;49.540;8.390;2024-03-02T01:03:33;15.75;;;9.90;;
4694;SDS011;2361;49.540;8.390;2024-03-02T01:05:55;16.30;;;9.60;;
4694;SDS011;2361;49.540;8.390;2024-03-02T01:08:17;18.97;;;9.90;;
4694;SDS011;2361;49.540;8.390;2024-03-02T01:10:39;15.80;;;9.82;;
4694;SDS011;2361;49.540;8.390;2024-03-02T01:13:01;14.57;;;9.32;;
4694;SDS011;2361;49.540;8.390;2024-03-02T01:15:24;16.30;;;9.57;;
4694;SDS011;2361;49.540;8.390;2024-03-02T01:17:46;14.60;;;9.10;;
4694;SDS011;2361;49.540;8.390;2024-03-02T01:20:08;17.35;;;9.30;;
4694;SDS011;2361;49.540;8.390;2024-03-02T01:22:30;15.35;;;9.02;;
4694;SDS011;2361;49.540;8.390;2024-03-02T01:24:52;16.17;;;9.52;;
4694;SDS011;2361;49.540;8.390;2024-03-02T01:27:14;16.40;;;9.27;;
4694;SDS011;2361;49.540;8.390;2024-03-02T01:29:36;16.85;;;9.50;;
4694;SDS011;2361;49.540;8.390;2024-03-02T01:31:58;15.67;;;9.50;;
4694;SDS011;2361;49.540;8.390;2024-03-02T01:34:20;16.05;;;10.00;;
4694;SDS011;2361;49.540;8.390;2024-03-02T01:36:42;17.23;;;9.15;;
4694;SDS011;2361;49.540;8.390;2024-03-02T01:39:04;16.88;;;9.90;;
4694;SDS011;2361;49.540;8.390;2024-03-02T01:41:30;21.52;;;10.45;;
4694;SDS011;2361;49.540;8.390;2024-03-02T01:43:52;18.10;;;11.18;;
4694;SDS011;2361;49.540;8.390;2024-03-02T01:46:14;18.27;;;10.60;;
4694;SDS011;2361;49.540;8.390;2024-03-02T01:48:36;19.05;;;11.15;;
4694;SDS011;2361;49.540;8.390;2024-03-02T01:50:58;19.40;;;11.10;;
4694;SDS011;2361;49.540;8.390;2024-03-02T01:53:20;19.65;;;11.23;;
4694;SDS011;2361;49.540;8.390;2024-03-02T01:55:42;19.17;;;10.27;;
4694;SDS011;2361;49.540;8.390;2024-03-02T01:58:04;19.23;;;10.25;;
4694;SDS011;2361;49.540;8.390;2024-03-02T02:00:26;16.92;;;10.10;;
4694;SDS011;2361;49.540;8.390;2024-03-02T02:02:49;12.68;;;7.32;;
4694;SDS011;2361;49.540;8.390;2024-03-02T02:05:11;15.85;;;9.13;;
4694;SDS011;2361;49.540;8.390;2024-03-02T02:07:34;15.05;;;7.78;;
4694;SDS011;2361;49.540;8.390;2024-03-02T02:09:57;13.68;;;7.80;;
4694;SDS011;2361;49.540;8.390;2024-03-02T02:12:19;15.65;;;8.13;;
4694;SDS011;2361;49.540;8.390;2024-03-02T02:14:46;14.10;;;8.55;;
4694;SDS011;2361;49.540;8.390;2024-03-02T02:17:10;18.52;;;9.68;;
4694;SDS011;2361;49.540;8.390;2024-03-02T02:19:32;16.73;;;9.70;;
4694;SDS011;2361;49.540;8.390;2024-03-02T02:21:54;17.00;;;9.98;;
4694;SDS011;2361;49.540;8.390;2024-03-02T02:24:16;18.67;;;8.77;;
4694;SDS011;2361;49.540;8.390;2024-03-02T02:26:39;17.60;;;9.60;;
4694;SDS011;2361;49.540;8.390;2024-03-02T02:29:01;17.27;;;10.05;;
4694;SDS011;2361;49.540;8.390;2024-03-02T02:31:23;18.00;;;11.15;;
4694;SDS011;2361;49.540;8.390;2024-03-02T02:33:45;17.15;;;10.63;;
4694;SDS011;2361;49.540;8.390;2024-03-02T02:36:07;14.60;;;8.65;;
4694;SDS011;2361;49.540;8.390;2024-03-02T02:38:32;13.32;;;7.90;;
4694;SDS011;2361;49.540;8.390;2024-03-02T02:40:56;14.77;;;9.02;;
4694;SDS011;2361;49.540;8.390;2024-03-02T02:43:19;13.10;;;7.53;;
4694;SDS011;2361;49.540;8.390;2024-03-02T02:45:40;14.38;;;7.70;;
4694;SDS011;2361;49.540;8.390;2024-03-02T02:48:03;9.88;;;6.30;;
4694;SDS011;2361;49.540;8.390;2024-03-02T02:50:25;13.70;;;8.70;;
4694;SDS011;2361;49.540;8.390;2024-03-02T02:52:47;12.98;;;7.63;;
4694;SDS011;2361;49.540;8.390;2024-03-02T02:55:10;15.70;;;8.73;;
4694;SDS011;2361;49.540;8.390;2024-03-02T02:57:33;14.75;;;8.20;;
4694;SDS011;2361;49.540;8.390;2024-03-02T03:00:01;14.25;;;8.30;;
4694;SDS011;2361;49.540;8.390;2024-03-02T03:02:31;11.00;;;6.10;;
4694;SDS011;2361;49.540;8.390;2024-03-02T03:04:53;15.63;;;9.05;;
4694;SDS011;2361;49.540;8.390;2024-03-02T03:07:15;17.30;;;8.77;;
4694;SDS011;2361;49.540;8.390;2024-03-02T03:09:37;12.40;;;6.25;;
4694;SDS011;2361;49.540;8.390;2024-03-02T03:12:02;14.55;;;8.48;;
4694;SDS011;2361;49.540;8.390;2024-03-02T03:14:24;18.85;;;9.48;;
4694;SDS011;2361;49.540;8.390;2024-03-02T03:16:46;16.73;;;8.80;;
4694;SDS011;2361;49.540;8.390;2024-03-02T03:19:09;13.88;;;8.90;;
4694;SDS011;2361;49.540;8.390;2024-03-02T03:21:31;17.00;;;9.50;;
4694;SDS011;2361;49.540;8.390;2024-03-02T03:23:53;21.48;;;10.18;;
4694;SDS011;2361;49.540;8.390;2024-03-02T03:26:16;16.63;;;8.45;;
4694;SDS011;2361;49.540;8.390;2024-03-02T03:28:38;13.47;;;7.03;;
4694;SDS011;2361;49.540;8.390;2024-03-02T03:31:00;17.48;;;9.35;;
4694;SDS011;2361;49.540;8.390;2024-03-02T03:33:23;17.95;;;10.05;;
4694;SDS011;2361;49.540;8.390;2024-03-02T03:35:45;12.82;;;7.07;;
4694;SDS011;2361;49.540;8.390;2024-03-02T03:38:07;16.52;;;9.10;;
4694;SDS011;2361;49.540;8.390;2024-03-02T03:40:29;15.10;;;9.20;;
4694;SDS011;2361;49.540;8.390;2024-03-02T03:42:51;14.30;;;7.63;;
4694;SDS011;2361;49.540;8.390;2024-03-02T03:45:13;16.20;;;9.05;;
4694;SDS011;2361;49.540;8.390;2024-03-02T03:47:36;15.30;;;8.55;;
4694;SDS011;2361;49.540;8.390;2024-03-02T03:49:58;16.02;;;9.30;;
4694;SDS011;2361;49.540;8.390;2024-03-02T03:52:20;13.38;;;7.35;;
4694;SDS011;2361;49.540;8.390;2024-03-02T03:54:42;15.32;;;8.98;;
4694;SDS011;2361;49.540;8.390;2024-03-02T03:57:05;15.07;;;7.13;;
4694;SDS011;2361;49.540;8.390;2024-03-02T03:59:27;16.90;;;8.00;;
4694;SDS011;2361;49.540;8.390;2024-03-02T04:01:49;13.30;;;8.20;;
4694;SDS011;2361;49.540;8.390;2024-03-02T04:04:12;14.73;;;8.80;;
4694;SDS011;2361;49.540;8.390;2024-03-02T04:06:34;15.00;;;8.48;;
4694;SDS011;2361;49.540;8.390;2024-03-02T04:08:55;15.73;;;9.50;;
4694;SDS011;2361;49.540;8.390;2024-03-02T04:11:17;14.20;;;8.03;;
4694;SDS011;2361;49.540;8.390;2024-03-02T04:13:40;12.82;;;6.78;;
4694;SDS011;2361;49.540;8.390;2024-03-02T04:16:02;13.30;;;7.30;;
4694;SDS011;2361;49.540;8.390;2024-03-02T04:18:25;12.57;;;7.80;;
4694;SDS011;2361;49.540;8.390;2024-03-02T04:20:47;14.47;;;7.70;;
4694;SDS011;2361;49.540;8.390;2024-03-02T04:23:11;12.57;;;7.20;;
4694;SDS011;2361;49.540;8.390;2024-03-02T04:25:33;14.27;;;7.50;;
4694;SDS011;2361;49.540;8.390;2024-03-02T04:27:55;15.48;;;8.13;;
4694;SDS011;2361;49.540;8.390;2024-03-02T04:30:17;11.38;;;7.00;;
4694;SDS011;2361;49.540;8.390;2024-03-02T04:32:39;11.68;;;7.70;;
4694;SDS011;2361;49.540;8.390;2024-03-02T04:35:01;12.83;;;7.60;;
4694;SDS011;2361;49.540;8.390;2024-03-02T04:37:23;14.07;;;7.22;;
4694;SDS011;2361;49.540;8.390;2024-03-02T04:39:45;11.10;;;6.13;;
4694;SDS011;2361;49.540;8.390;2024-03-02T04:42:07;12.80;;;7.70;;
4694;SDS011;2361;49.540;8.390;2024-03-02T04:44:29;12.82;;;7.82;;
4694;SDS011;2361;49.540;8.390;2024-03-02T04:46:51;12.00;;;7.45;;
4694;SDS011;2361;49.540;8.390;2024-03-02T04:49:13;14.45;;;7.25;;
4694;SDS011;2361;49.540;8.390;2024-03-02T04:51:35;11.15;;;7.28;;
4694;SDS011;2361;49.540;8.390;2024-03-02T04:53:57;12.15;;;7.38;;
4694;SDS011;2361;49.540;8.390;2024-03-02T04:56:20;11.32;;;6.82;;
4694;SDS011;2361;49.540;8.390;2024-03-02T04:59:01;9.80;;;5.75;;
4694;SDS011;2361;49.540;8.390;2024-03-02T05:01:23;9.52;;;5.25;;
4694;SDS011;2361;49.540;8.390;2024-03-02T05:03:45;10.75;;;5.80;;
4694;SDS011;2361;49.540;8.390;2024-03-02T05:06:07;9.50;;;5.50;;
4694;SDS011;2361;49.540;8.390;2024-03-02T05:08:29;13.77;;;6.35;;
4694;SDS011;2361;49.540;8.390;2024-03-02T05:10:51;12.10;;;6.82;;
4694;SDS011;2361;49.540;8.390;2024-03-02T05:13:13;13.13;;;7.20;;
4694;SDS011;2361;49.540;8.390;2024-03-02T05:15:35;12.73;;;6.95;;
4694;SDS011;2361;49.540;8.390;2024-03-02T05:17:57;12.87;;;7.10;;
4694;SDS011;2361;49.540;8.390;2024-03-02T05:20:21;11.27;;;6.88;;
4694;SDS011;2361;49.540;8.390;2024-03-02T05:22:43;10.05;;;6.30;;
4694;SDS011;2361;49.540;8.390;2024-03-02T05:25:05;13.53;;;7.00;;
4694;SDS011;2361;49.540;8.390;2024-03-02T05:27:28;12.70;;;7.57;;
4694;SDS011;2361;49.540;8.390;2024-03-02T05:29:50;12.38;;;7.53;;
4694;SDS011;2361;49.540;8.390;2024-03-02T05:32:12;12.75;;;7.25;;
4694;SDS011;2361;49.540;8.390;2024-03-02T05:34:34;14.02;;;7.80;;
4694;SDS011;2361;49.540;8.390;2024-03-02T05:36:57;11.05;;;6.30;;
4694;SDS011;2361;49.540;8.390;2024-03-02T05:39:19;12.05;;;7.63;;
4694;SDS011;2361;49.540;8.390;2024-03-02T05:41:41;11.38;;;7.50;;
4694;SDS011;2361;49.540;8.390;2024-03-02T05:44:03;10.50;;;6.83;;
4694;SDS011;2361;49.540;8.390;2024-03-02T05:46:25;11.60;;;6.65;;
4694;SDS011;2361;49.540;8.390;2024-03-02T05:48:47;12.15;;;7.15;;
4694;SDS011;2361;49.540;8.390;2024-03-02T05:51:09;9.98;;;6.43;;
4694;SDS011;2361;49.540;8.390;2024-03-02T05:53:32;7.85;;;4.88;;
4694;SDS011;2361;49.540;8.390;2024-03-02T05:55:54;10.30;;;6.10;;
4694;SDS011;2361;49.540;8.390;2024-03-02T05:58:17;11.65;;;6.40;;
4694;SDS011;2361;49.540;8.390;2024-03-02T06:00:52;9.73;;;6.63;;
4694;SDS011;2361;49.540;8.390;2024-03-02T06:03:15;14.00;;;7.10;;
4694;SDS011;2361;49.540;8.390;2024-03-02T06:05:37;11.10;;;6.63;;
4694;SDS011;2361;49.540;8.390;2024-03-02T06:07:59;10.15;;;6.20;;
4694;SDS011;2361;49.540;8.390;2024-03-02T06:10:21;10.32;;;6.30;;
4694;SDS011;2361;49.540;8.390;2024-03-02T06:12:45;13.60;;;7.15;;
4694;SDS011;2361;49.540;8.390;2024-03-02T06:15:07;18.80;;;6.78;;
4694;SDS011;2361;49.540;8.390;2024-03-02T06:17:29;10.07;;;6.30;;
4694;SDS011;2361;49.540;8.390;2024-03-02T06:19:51;12.10;;;6.95;;
4694;SDS011;2361;49.540;8.390;2024-03-02T06:22:13;13.75;;;7.57;;
4694;SDS011;2361;49.540;8.390;2024-03-02T06:24:36;11.60;;;6.75;;
4694;SDS011;2361;49.540;8.390;2024-03-02T06:26:59;8.52;;;6.20;;
4694;SDS011;2361;49.540;8.390;2024-03-02T06:29:21;13.25;;;7.60;;
4694;SDS011;2361;49.540;8.390;2024-03-02T06:31:43;12.27;;;6.97;;
4694;SDS011;2361;49.540;8.390;2024-03-02T06:34:06;12.32;;;7.50;;
4694;SDS011;2361;49.540;8.390;2024-03-02T06:36:29;13.68;;;7.63;;
4694;SDS011;2361;49.540;8.390;2024-03-02T06:38:52;15.48;;;8.63;;
4694;SDS011;2361;49.540;8.390;2024-03-02T06:41:13;19.25;;;10.07;;
4694;SDS011;2361;49.540;8.390;2024-03-02T06:43:35;16.88;;;9.80;;
4694;SDS011;2361;49.540;8.390;2024-03-02T06:45:57;18.08;;;10.35;;
4694;SDS011;2361;49.540;8.390;2024-03-02T06:48:19;16.40;;;9.90;;
4694;SDS011;2361;49.540;8.390;2024-03-02T06:50:42;16.55;;;9.00;;
4694;SDS011;2361;49.540;8.390;2024-03-02T06:53:04;17.42;;;10.05;;
4694;SDS011;2361;49.540;8.390;2024-03-02T06:55:26;16.60;;;9.47;;
4694;SDS011;2361;49.540;8.390;2024-03-02T06:57:48;18.00;;;9.93;;
4694;SDS011;2361;49.540;8.390;2024-03-02T07:00:10;17.83;;;9.32;;
4694;SDS011;2361;49.540;8.390;2024-03-02T07:02:32;21.15;;;11.40;;
4694;SDS011;2361;49.540;8.390;2024-03-02T07:04:54;19.83;;;11.88;;
4694;SDS011;2361;49.540;8.390;2024-03-02T07:07:16;22.65;;;13.07;;
4694;SDS011;2361;49.540;8.390;2024-03-02T07:09:38;22.33;;;13.40;;
4694;SDS011;2361;49.540;8.390;2024-03-02T07:12:01;20.90;;;11.90;;
4694;SDS011;2361;49.540;8.390;2024-03-02T07:14:23;21.52;;;13.00;;
4694;SDS011;2361;49.540;8.390;2024-03-02T07:17:04;22.50;;;12.38;;
4694;SDS011;2361;49.540;8.390;2024-03-02T07:19:27;19.95;;;11.35;;
4694;SDS011;2361;49.540;8.390;2024-03-02T07:21:49;19.98;;;11.90;;
4694;SDS011;2361;49.540;8.390;2024-03-02T07:24:11;15.77;;;9.07;;
4694;SDS011;2361;49.540;8.390;2024-03-02T07:26:35;20.95;;;11.70;;
4694;SDS011;2361;49.540;8.390;2024-03-02T07:29:00;19.73;;;10.32;;
4694;SDS011;2361;49.540;8.390;2024-03-02T07:31:22;18.85;;;11.40;;
4694;SDS011;2361;49.540;8.390;2024-03-02T07:33:44;16.42;;;9.77;;
4694;SDS011;2361;49.540;8.390;2024-03-02T07:36:07;19.30;;;10.73;;
4694;SDS011;2361;49.540;8.390;2024-03-02T07:38:30;15.80;;;9.20;;
4694;SDS011;2361;49.540;8.390;2024-03-02T07:40:55;16.08;;;9.30;;
4694;SDS011;2361;49.540;8.390;2024-03-02T07:43:18;23.00;;;11.45;;
4694;SDS011;2361;49.540;8.390;2024-03-02T07:45:40;16.10;;;9.25;;
4694;SDS011;2361;49.540;8.390;2024-03-02T07:48:02;14.00;;;8.10;;
4694;SDS011;2361;49.540;8.390;2024-03-02T07:50:25;18.00;;;10.07;;
4694;SDS011;2361;49.540;8.390;2024-03-02T07:52:47;13.10;;;7.03;;
4694;SDS011;2361;49.540;8.390;2024-03-02T07:55:09;11.32;;;6.90;;
4694;SDS011;2361;49.540;8.390;2024-03-02T07:57:31;10.73;;;6.90;;
4694;SDS011;2361;49.540;8.390;2024-03-02T07:59:53;10.73;;;6.72;;
4694;SDS011;2361;49.540;8.390;2024-03-02T08:02:15;10.70;;;6.75;;
4694;SDS011;2361;49.540;8.390;2024-03-02T08:04:37;10.07;;;6.20;;
4694;SDS011;2361;49.540;8.390;2024-03-02T08:06:59;9.35;;;5.80;;
4694;SDS011;2361;49.540;8.390;2024-03-02T08:09:21;8.75;;;6.20;;
4694;SDS011;2361;49.540;8.390;2024-03-02T08:11:43;8.98;;;6.22;;
4694;SDS011;2361;49.540;8.390;2024-03-02T08:14:05;8.15;;;6.00;;
4694;SDS011;2361;49.540;8.390;2024-03-02T08:16:27;7.82;;;5.50;;
4694;SDS011;2361;49.540;8.390;2024-03-02T08:18:49;7.22;;;5.50;;
4694;SDS011;2361;49.540;8.390;2024-03-02T08:21:12;7.78;;;5.60;;
4694;SDS011;2361;49.540;8.390;2024-03-02T08:23:35;7.47;;;5.25;;
4694;SDS011;2361;49.540;8.390;2024-03-02T08:25:57;8.55;;;6.07;;
4694;SDS011;2361;49.540;8.390;2024-03-02T08:28:19;10.70;;;5.82;;
4694;SDS011;2361;49.540;8.390;2024-03-02T08:30:41;8.90;;;5.60;;
4694;SDS011;2361;49.540;8.390;2024-03-02T08:33:03;8.47;;;5.80;;
4694;SDS011;2361;49.540;8.390;2024-03-02T08:35:27;9.77;;;5.47;;
4694;SDS011;2361;49.540;8.390;2024-03-02T08:37:49;10.00;;;5.93;;
4694;SDS011;2361;49.540;8.390;2024-03-02T08:40:11;7.97;;;5.93;;
4694;SDS011;2361;49.540;8.390;2024-03-02T08:42:36;7.30;;;5.50;;
4694;SDS011;2361;49.540;8.390;2024-03-02T08:44:59;7.28;;;5.40;;
4694;SDS011;2361;49.540;8.390;2024-03-02T08:47:22;6.22;;;4.63;;
4694;SDS011;2361;49.540;8.390;2024-03-02T08:49:44;4.80;;;4.20;;
4694;SDS011;2361;49.540;8.390;2024-03-02T08:52:06;5.00;;;4.10;;
4694;SDS011;2361;49.540;8.390;2024-03-02T08:54:28;7.28;;;4.75;;
4694;SDS011;2361;49.540;8.390;2024-03-02T08:56:50;5.82;;;4.50;;
4694;SDS011;2361;49.540;8.390;2024-03-02T08:59:12;7.57;;;5.30;;
4694;SDS011;2361;49.540;8.390;2024-03-02T09:01:34;6.53;;;4.97;;
4694;SDS011;2361;49.540;8.390;2024-03-02T09:03:56;7.43;;;5.40;;
4694;SDS011;2361;49.540;8.390;2024-03-02T09:06:18;6.97;;;5.35;;
4694;SDS011;2361;49.540;8.390;2024-03-02T09:08:41;7.70;;;5.38;;
4694;SDS011;2361;49.540;8.390;2024-03-02T09:11:04;7.40;;;5.47;;
4694;SDS011;2361;49.540;8.390;2024-03-02T09:13:28;8.80;;;5.20;;
4694;SDS011;2361;49.540;8.390;2024-03-02T09:15:50;11.73;;;7.82;;
4694;SDS011;2361;49.540;8.390;2024-03-02T09:18:13;12.43;;;7.37;;
4694;SDS011;2361;49.540;8.390;2024-03-02T09:20:35;8.25;;;5.57;;
4694;SDS011;2361;49.540;8.390;2024-03-02T09:22:57;7.80;;;5.70;;
4694;SDS011;2361;49.540;8.390;2024-03-02T09:25:19;7.13;;;5.60;;
4694;SDS011;2361;49.540;8.390;2024-03-02T09:27:40;7.35;;;5.40;;
4694;SDS011;2361;49.540;8.390;2024-03-02T09:30:03;7.20;;;5.60;;
4694;SDS011;2361;49.540;8.390;2024-03-02T09:32:26;7.05;;;5.43;;
4694;SDS011;2361;49.540;8.390;2024-03-02T09:34:49;7.65;;;5.57;;
4694;SDS011;2361;49.540;8.390;2024-03-02T09:37:11;6.45;;;5.35;;
4694;SDS011;2361;49.540;8.390;2024-03-02T09:39:33;5.93;;;5.20;;
4694;SDS011;2361;49.540;8.390;2024-03-02T09:41:56;6.03;;;5.43;;
4694;SDS011;2361;49.540;8.390;2024-03-02T09:44:22;4.72;;;4.32;;
4694;SDS011;2361;49.540;8.390;2024-03-02T09:46:48;5.65;;;4.95;;
4694;SDS011;2361;49.540;8.390;2024-03-02T09:49:10;5.65;;;5.00;;
4694;SDS011;2361;49.540;8.390;2024-03-02T09:51:32;5.00;;;4.50;;
4694;SDS011;2361;49.540;8.390;2024-03-02T09:53:55;4.63;;;4.22;;
4694;SDS011;2361;49.540;8.390;2024-03-02T09:56:29;4.85;;;4.43;;
4694;SDS011;2361;49.540;8.390;2024-03-02T09:58:51;6.38;;;5.40;;
4694;SDS011;2361;49.540;8.390;2024-03-02T10:01:13;4.93;;;4.43;;
4694;SDS011;2361;49.540;8.390;2024-03-02T10:03:36;5.00;;;4.50;;
4694;SDS011;2361;49.540;8.390;2024-03-02T10:06:19;5.57;;;4.90;;
4694;SDS011;2361;49.540;8.390;2024-03-02T10:08:42;5.45;;;4.90;;
4694;SDS011;2361;49.540;8.390;2024-03-02T10:11:05;7.63;;;5.00;;
4694;SDS011;2361;49.540;8.390;2024-03-02T10:13:28;5.60;;;5.10;;
4694;SDS011;2361;49.540;8.390;2024-03-02T10:15:50;5.30;;;4.75;;
4694;SDS011;2361;49.540;8.390;2024-03-02T10:18:14;5.63;;;5.03;;
4694;SDS011;2361;49.540;8.390;2024-03-02T10:20:50;5.78;;;5.18;;
4694;SDS011;2361;49.540;8.390;2024-03-02T10:23:13;5.78;;;4.85;;
4694;SDS011;2361;49.540;8.390;2024-03-02T10:25:38;5.23;;;4.60;;
4694;SDS011;2361;49.540;8.390;2024-03-02T10:28:08;5.30;;;4.80;;
4694;SDS011;2361;49.540;8.390;2024-03-02T10:30:30;5.38;;;4.88;;
4694;SDS011;2361;49.540;8.390;2024-03-02T10:32:55;5.05;;;4.55;;
4694;SDS011;2361;49.540;8.390;2024-03-02T10:35:17;4.63;;;4.25;;
4694;SDS011;2361;49.540;8.390;2024-03-02T10:37:39;5.30;;;4.80;;
4694;SDS011;2361;49.540;8.390;2024-03-02T10:40:04;5.40;;;4.90;;
4694;SDS011;2361;49.540;8.390;2024-03-02T10:42:27;5.68;;;5.07;;
4694;SDS011;2361;49.540;8.390;2024-03-02T10:44:49;6.35;;;5.32;;
4694;SDS011;2361;49.540;8.390;2024-03-02T10:47:12;13.07;;;8.98;;
4694;SDS011;2361;49.540;8.390;2024-03-02T10:49:37;7.07;;;5.18;;
4694;SDS011;2361;49.540;8.390;2024-03-02T10:52:03;6.05;;;4.70;;
4694;SDS011;2361;49.540;8.390;2024-03-02T10:54:25;4.50;;;4.10;;
4694;SDS011;2361;49.540;8.390;2024-03-02T10:56:50;6.93;;;5.00;;
4694;SDS011;2361;49.540;8.390;2024-03-02T10:59:28;6.32;;;4.50;;
4694;SDS011;2361;49.540;8.390;2024-03-02T11:01:55;4.50;;;4.10;;
4694;SDS011;2361;49.540;8.390;2024-03-02T11:04:22;4.30;;;3.90;;
4694;SDS011;2361;49.540;8.390;2024-03-02T11:06:51;6.20;;;4.43;;
4694;SDS011;2361;49.540;8.390;2024-03-02T11:09:13;4.32;;;3.92;;
4694;SDS011;2361;49.540;8.390;2024-03-02T11:11:40;5.75;;;4.32;;
4694;SDS011;2361;49.540;8.390;2024-03-02T11:14:04;4.15;;;3.70;;
4694;SDS011;2361;49.540;8.390;2024-03-02T11:16:36;4.38;;;3.97;;
4694;SDS011;2361;49.540;8.390;2024-03-02T11:19:04;5.85;;;4.40;;
4694;SDS011;2361;49.540;8.390;2024-03-02T11:21:38;4.80;;;4.03;;
4694;SDS011;2361;49.540;8.390;2024-03-02T11:24:35;4.07;;;3.47;;
4694;SDS011;2361;49.540;8.390;2024-03-02T11:26:57;5.22;;;3.35;;
4694;SDS011;2361;49.540;8.390;2024-03-02T11:31:58;4.90;;;3.70;;
4694;SDS011;2361;49.540;8.390;2024-03-02T11:34:31;3.65;;;3.35;;
4694;SDS011;2361;49.540;8.390;2024-03-02T11:36:55;3.47;;;3.17;;
4694;SDS011;2361;49.540;8.390;2024-03-02T11:39:17;4.18;;;3.30;;
4694;SDS011;2361;49.540;8.390;2024-03-02T11:41:39;4.45;;;3.20;;
4694;SDS011;2361;49.540;8.390;2024-03-02T11:44:03;3.20;;;2.90;;
4694;SDS011;2361;49.540;8.390;2024-03-02T11:46:25;2.53;;;2.22;;
4694;SDS011;2361;49.540;8.390;2024-03-02T11:48:47;2.80;;;2.20;;
4694;SDS011;2361;49.540;8.390;2024-03-02T11:51:09;2.88;;;2.13;;
4694;SDS011;2361;49.540;8.390;2024-03-02T11:53:33;2.28;;;1.88;;
4694;SDS011;2361;49.540;8.390;2024-03-02T11:55:57;2.08;;;1.80;;
4694;SDS011;2361;49.540;8.390;2024-03-02T11:58:20;2.15;;;1.95;;
4694;SDS011;2361;49.540;8.390;2024-03-02T12:00:45;2.23;;;2.03;;
4694;SDS011;2361;49.540;8.390;2024-03-02T12:03:08;7.20;;;4.70;;
4694;SDS011;2361;49.540;8.390;2024-03-02T12:05:34;2.30;;;1.60;;
4694;SDS011;2361;49.540;8.390;2024-03-02T12:08:00;1.70;;;1.60;;
4694;SDS011;2361;49.540;8.390;2024-03-02T12:10:25;2.30;;;2.10;;
4694;SDS011;2361;49.540;8.390;2024-03-02T12:12:48;2.08;;;1.98;;
4694;SDS011;2361;49.540;8.390;2024-03-02T12:15:22;1.30;;;1.20;;
4694;SDS011;2361;49.540;8.390;2024-03-02T12:17:46;2.15;;;1.40;;
4694;SDS011;2361;49.540;8.390;2024-03-02T12:20:11;1.90;;;1.52;;
4694;SDS011;2361;49.540;8.390;2024-03-02T12:22:33;1.20;;;1.10;;
4694;SDS011;2361;49.540;8.390;2024-03-02T12:24:55;1.42;;;1.33;;
4694;SDS011;2361;49.540;8.390;2024-03-02T12:27:17;1.08;;;1.08;;
4694;SDS011;2361;49.540;8.390;2024-03-02T12:29:42;1.10;;;1.10;;
4694;SDS011;2361;49.540;8.390;2024-03-02T12:32:05;1.67;;;1.58;;
4694;SDS011;2361;49.540;8.390;2024-03-02T12:34:27;1.50;;;1.40;;
4694;SDS011;2361;49.540;8.390;2024-03-02T12:36:49;1.40;;;1.30;;
4694;SDS011;2361;49.540;8.390;2024-03-02T12:39:14;1.30;;;1.20;;
4694;SDS011;2361;49.540;8.390;2024-03-02T12:41:38;1.20;;;1.00;;
4694;SDS011;2361;49.540;8.390;2024-03-02T12:44:00;1.05;;;1.05;;
4694;SDS011;2361;49.540;8.390;2024-03-02T12:46:22;1.20;;;1.20;;
4694;SDS011;2361;49.540;8.390;2024-03-02T12:48:44;2.45;;;2.20;;
4694;SDS011;2361;49.540;8.390;2024-03-02T12:51:07;1.30;;;1.20;;
4694;SDS011;2361;49.540;8.390;2024-03-02T12:53:29;1.10;;;1.00;;
4694;SDS011;2361;49.540;8.390;2024-03-02T12:55:51;1.00;;;1.00;;
4694;SDS011;2361;49.540;8.390;2024-03-02T12:58:20;1.05;;;1.02;;
4694;SDS011;2361;49.540;8.390;2024-03-02T13:00:43;1.00;;;1.00;;
4694;SDS011;2361;49.540;8.390;2024-03-02T13:03:05;1.00;;;1.00;;
4694;SDS011;2361;49.540;8.390;2024-03-02T13:05:31;0.80;;;0.80;;
4694;SDS011;2361;49.540;8.390;2024-03-02T13:07:53;0.80;;;0.80;;
4694;SDS011;2361;49.540;8.390;2024-03-02T13:10:16;0.90;;;0.90;;
4694;SDS011;2361;49.540;8.390;2024-03-02T13:12:39;3.70;;;1.00;;
4694;SDS011;2361;49.540;8.390;2024-03-02T13:15:02;4.93;;;2.90;;
4694;SDS011;2361;49.540;8.390;2024-03-02T13:17:25;1.20;;;1.10;;
4694;SDS011;2361;49.540;8.390;2024-03-02T13:19:52;1.30;;;1.20;;
4694;SDS011;2361;49.540;8.390;2024-03-02T13:22:14;0.93;;;0.83;;
4694;SDS011;2361;49.540;8.390;2024-03-02T13:24:36;0.80;;;0.80;;
4694;SDS011;2361;49.540;8.390;2024-03-02T13:26:58;1.80;;;0.90;;
4694;SDS011;2361;49.540;8.390;2024-03-02T13:29:21;1.30;;;1.20;;
4694;SDS011;2361;49.540;8.390;2024-03-02T13:31:43;0.90;;;0.90;;
4694;SDS011;2361;49.540;8.390;2024-03-02T13:34:05;0.95;;;0.85;;
4694;SDS011;2361;49.540;8.390;2024-03-02T13:36:27;1.08;;;0.80;;
4694;SDS011;2361;49.540;8.390;2024-03-02T13:38:49;0.90;;;0.90;;
4694;SDS011;2361;49.540;8.390;2024-03-02T13:41:11;1.90;;;0.90;;
4694;SDS011;2361;49.540;8.390;2024-03-02T13:43:33;4.10;;;0.70;;
4694;SDS011;2361;49.540;8.390;2024-03-02T13:45:56;0.95;;;0.80;;
4694;SDS011;2361;49.540;8.390;2024-03-02T13:48:19;2.28;;;2.08;;
4694;SDS011;2361;49.540;8.390;2024-03-02T13:50:42;2.90;;;2.60;;
4694;SDS011;2361;49.540;8.390;2024-03-02T13:53:03;0.80;;;0.80;;
4694;SDS011;2361;49.540;8.390;2024-03-02T13:55:26;0.82;;;0.82;;
4694;SDS011;2361;49.540;8.390;2024-03-02T13:57:48;0.85;;;0.85;;
4694;SDS011;2361;49.540;8.390;2024-03-02T14:00:11;1.13;;;1.10;;
4694;SDS011;2361;49.540;8.390;2024-03-02T14:02:34;0.80;;;0.80;;
4694;SDS011;2361;49.540;8.390;2024-03-02T14:04:56;0.90;;;0.90;;
4694;SDS011;2361;49.540;8.390;2024-03-02T14:07:18;2.30;;;0.90;;
4694;SDS011;2361;49.540;8.390;2024-03-02T14:09:42;0.70;;;0.70;;
4694;SDS011;2361;49.540;8.390;2024-03-02T14:12:04;1.40;;;0.80;;
4694;SDS011;2361;49.540;8.390;2024-03-02T14:14:27;0.80;;;0.80;;
4694;SDS011;2361;49.540;8.390;2024-03-02T14:16:50;0.77;;;0.77;;
4694;SDS011;2361;49.540;8.390;2024-03-02T14:19:12;1.00;;;0.90;;
4694;SDS011;2361;49.540;8.390;2024-03-02T14:21:34;0.90;;;0.90;;
4694;SDS011;2361;49.540;8.390;2024-03-02T14:23:57;1.10;;;1.00;;
4694;SDS011;2361;49.540;8.390;2024-03-02T14:26:19;1.50;;;1.10;;
4694;SDS011;2361;49.540;8.390;2024-03-02T14:28:41;1.02;;;0.98;;
4694;SDS011;2361;49.540;8.390;2024-03-02T14:31:09;1.35;;;1.27;;
4694;SDS011;2361;49.540;8.390;2024-03-02T14:33:31;1.25;;;1.20;;
4694;SDS011;2361;49.540;8.390;2024-03-02T14:35:53;1.30;;;1.30;;
4694;SDS011;2361;49.540;8.390;2024-03-02T14:38:15;1.50;;;1.40;;
4694;SDS011;2361;49.540;8.390;2024-03-02T14:40:37;1.60;;;1.50;;
4694;SDS011;2361;49.540;8.390;2024-03-02T14:43:00;1.80;;;1.65;;
4694;SDS011;2361;49.540;8.390;2024-03-02T14:45:22;2.50;;;1.45;;
4694;SDS011;2361;49.540;8.390;2024-03-02T14:47:45;1.90;;;1.80;;
4694;SDS011;2361;49.540;8.390;2024-03-02T14:50:07;1.50;;;1.50;;